Airfield :
LOGIN :

Register | Disclaimer

   EN    FR    IT 

 










Legend :    VFR   Marginal VFR   IFR   Intensive IFR   Very Intensive IFR
Visi :
Ceiling :
>= 8 km
>= 3000ft
5 to 8 km
1000 to 3000 ft
1500m to 5 km
500 to 1000 ft
800 to 1500m
200 to 500 ft
< 800m
< 200 ft
Symbols :   Thunderstorms  Fog  Heavy snow  Heavy precipitations  Wind > 20 kt
SIGMETs :     Misc.  Thunderstorms  Icing  Turbulence  Mountain Waves  Volcanic Ashes






- Airport Elevation : 19 ft
- IATA code : DJE


DTTJ - Djerba Zarzis

CURRENT METAR :
  • 251930Z 12011KT CAVOK 31/09 Q1010 NOSIG

EXPIRED METARs :
  • 251900Z 10011KT CAVOK 32/07 Q1010 NOSIG
  • 251830Z 10010KT CAVOK 32/06 Q1010 NOSIG
  • 251800Z 10010KT CAVOK 33/05 Q1010 NOSIG
  • 251730Z 10011KT CAVOK 35/04 Q1009 NOSIG
  • 251700Z 11014KT CAVOK 36/03 Q1009 NOSIG

TAF TAF DTTJ
Valid from the 25 at 18:00 until the 26 at 18:00 UTC


251700Z 2518/2618 10012KT CAVOK
BECMG 2604/2606 04015KT
BECMG 2607/2609 VRB03KT
BECMG 2610/2612 34010KT



MET'MAP, your aeronautical weather chart ! - Copyright ORBIFLY December 2007 - Disclaimer

ORBIFLY MET'MAP TEAM :

Programming & Development : Alexandra Zaïnal
Original concept : Baudouin d'Aumeries
Technical & hardware support : Manuel Goepfert
Assistance : Marc-Olivier Méhu

Contact : metmap@orbifly.com




SOURCES & CREDITS :

   NOAA